sensor_id;sensor_type;location;lat;lon;timestamp;temperature;humidity
3408;DHT22;1717;50.240;8.406;2023-05-07T00:00:22;16.50;96.80
3408;DHT22;1717;50.240;8.406;2023-05-07T00:02:50;16.50;96.90
3408;DHT22;1717;50.240;8.406;2023-05-07T00:05:17;16.40;96.90
3408;DHT22;1717;50.240;8.406;2023-05-07T00:07:44;16.40;96.90
3408;DHT22;1717;50.240;8.406;2023-05-07T00:10:11;16.40;97.00
3408;DHT22;1717;50.240;8.406;2023-05-07T00:12:38;16.40;97.00
3408;DHT22;1717;50.240;8.406;2023-05-07T00:15:06;16.40;97.10
3408;DHT22;1717;50.240;8.406;2023-05-07T00:17:35;16.40;97.40
3408;DHT22;1717;50.240;8.406;2023-05-07T00:20:02;16.40;97.20
3408;DHT22;1717;50.240;8.406;2023-05-07T00:22:30;16.50;97.20
3408;DHT22;1717;50.240;8.406;2023-05-07T00:24:57;16.50;97.00
3408;DHT22;1717;50.240;8.406;2023-05-07T00:27:24;16.50;97.00
3408;DHT22;1717;50.240;8.406;2023-05-07T00:29:51;16.50;97.30
3408;DHT22;1717;50.240;8.406;2023-05-07T00:32:18;16.50;97.30
3408;DHT22;1717;50.240;8.406;2023-05-07T00:34:46;16.50;97.20
3408;DHT22;1717;50.240;8.406;2023-05-07T00:37:13;16.50;97.30
3408;DHT22;1717;50.240;8.406;2023-05-07T00:39:40;16.50;97.20
3408;DHT22;1717;50.240;8.406;2023-05-07T00:42:07;16.50;97.10
3408;DHT22;1717;50.240;8.406;2023-05-07T00:44:34;16.50;97.30
3408;DHT22;1717;50.240;8.406;2023-05-07T00:47:02;16.40;97.20
3408;DHT22;1717;50.240;8.406;2023-05-07T00:49:35;16.40;97.30
3408;DHT22;1717;50.240;8.406;2023-05-07T00:52:05;16.40;97.10
3408;DHT22;1717;50.240;8.406;2023-05-07T00:54:33;16.40;97.30
3408;DHT22;1717;50.240;8.406;2023-05-07T00:57:02;16.40;97.10
3408;DHT22;1717;50.240;8.406;2023-05-07T00:59:29;16.40;97.00
3408;DHT22;1717;50.240;8.406;2023-05-07T01:01:57;16.40;97.00
3408;DHT22;1717;50.240;8.406;2023-05-07T01:04:23;16.40;96.90
3408;DHT22;1717;50.240;8.406;2023-05-07T01:06:51;16.40;96.90
3408;DHT22;1717;50.240;8.406;2023-05-07T01:09:21;16.40;96.90
3408;DHT22;1717;50.240;8.406;2023-05-07T01:11:49;16.40;96.80
3408;DHT22;1717;50.240;8.406;2023-05-07T01:14:17;16.40;96.80
3408;DHT22;1717;50.240;8.406;2023-05-07T01:16:44;16.60;96.80
3408;DHT22;1717;50.240;8.406;2023-05-07T01:19:12;16.50;96.60
3408;DHT22;1717;50.240;8.406;2023-05-07T01:21:45;16.40;96.40
3408;DHT22;1717;50.240;8.406;2023-05-07T01:24:14;16.50;96.30
3408;DHT22;1717;50.240;8.406;2023-05-07T01:26:43;16.50;96.30
3408;DHT22;1717;50.240;8.406;2023-05-07T01:29:10;16.50;96.20
3408;DHT22;1717;50.240;8.406;2023-05-07T01:31:37;16.60;96.20
3408;DHT22;1717;50.240;8.406;2023-05-07T01:34:07;16.60;96.50
3408;DHT22;1717;50.240;8.406;2023-05-07T01:36:36;16.50;96.30
3408;DHT22;1717;50.240;8.406;2023-05-07T01:39:04;16.50;96.40
3408;DHT22;1717;50.240;8.406;2023-05-07T01:41:33;16.50;96.30
3408;DHT22;1717;50.240;8.406;2023-05-07T01:44:01;16.60;96.20
3408;DHT22;1717;50.240;8.406;2023-05-07T01:46:29;16.60;96.10
3408;DHT22;1717;50.240;8.406;2023-05-07T01:48:58;16.50;96.20
3408;DHT22;1717;50.240;8.406;2023-05-07T01:51:25;16.60;96.40
3408;DHT22;1717;50.240;8.406;2023-05-07T01:53:52;16.60;96.30
3408;DHT22;1717;50.240;8.406;2023-05-07T01:56:19;16.80;96.30
3408;DHT22;1717;50.240;8.406;2023-05-07T01:58:48;16.60;96.30
3408;DHT22;1717;50.240;8.406;2023-05-07T02:01:16;16.60;96.30
3408;DHT22;1717;50.240;8.406;2023-05-07T02:03:43;16.60;96.30
3408;DHT22;1717;50.240;8.406;2023-05-07T02:06:10;16.60;96.30
3408;DHT22;1717;50.240;8.406;2023-05-07T02:08:37;16.60;96.30
3408;DHT22;1717;50.240;8.406;2023-05-07T02:11:04;16.60;96.30
3408;DHT22;1717;50.240;8.406;2023-05-07T02:13:33;16.60;96.50
3408;DHT22;1717;50.240;8.406;2023-05-07T02:16:01;16.60;96.60
3408;DHT22;1717;50.240;8.406;2023-05-07T02:18:29;16.60;96.70
3408;DHT22;1717;50.240;8.406;2023-05-07T02:20:56;16.60;96.80
3408;DHT22;1717;50.240;8.406;2023-05-07T02:23:22;16.60;96.60
3408;DHT22;1717;50.240;8.406;2023-05-07T02:25:50;16.60;96.70
3408;DHT22;1717;50.240;8.406;2023-05-07T02:28:17;16.60;96.80
3408;DHT22;1717;50.240;8.406;2023-05-07T02:30:44;16.60;96.80
3408;DHT22;1717;50.240;8.406;2023-05-07T02:33:12;16.60;96.70
3408;DHT22;1717;50.240;8.406;2023-05-07T02:35:39;16.60;96.70
3408;DHT22;1717;50.240;8.406;2023-05-07T02:38:06;16.60;96.70
3408;DHT22;1717;50.240;8.406;2023-05-07T02:40:33;16.60;97.00
3408;DHT22;1717;50.240;8.406;2023-05-07T02:43:04;16.80;97.00
3408;DHT22;1717;50.240;8.406;2023-05-07T02:45:31;16.70;97.00
3408;DHT22;1717;50.240;8.406;2023-05-07T02:47:57;16.70;97.00
3408;DHT22;1717;50.240;8.406;2023-05-07T02:50:26;16.70;96.90
3408;DHT22;1717;50.240;8.406;2023-05-07T02:52:53;16.70;96.90
3408;DHT22;1717;50.240;8.406;2023-05-07T02:55:20;16.70;97.00
3408;DHT22;1717;50.240;8.406;2023-05-07T02:57:48;16.80;97.20
3408;DHT22;1717;50.240;8.406;2023-05-07T03:00:16;16.70;97.00
3408;DHT22;1717;50.240;8.406;2023-05-07T03:02:43;16.50;96.90
3408;DHT22;1717;50.240;8.406;2023-05-07T03:05:10;16.70;97.00
3408;DHT22;1717;50.240;8.406;2023-05-07T03:07:38;16.70;97.10
3408;DHT22;1717;50.240;8.406;2023-05-07T03:10:07;16.70;97.00
3408;DHT22;1717;50.240;8.406;2023-05-07T03:12:34;16.70;97.10
3408;DHT22;1717;50.240;8.406;2023-05-07T03:15:01;16.70;97.00
3408;DHT22;1717;50.240;8.406;2023-05-07T03:17:28;16.80;97.20
3408;DHT22;1717;50.240;8.406;2023-05-07T03:19:54;16.70;97.20
3408;DHT22;1717;50.240;8.406;2023-05-07T03:22:21;16.70;97.10
3408;DHT22;1717;50.240;8.406;2023-05-07T03:24:49;16.70;97.20
3408;DHT22;1717;50.240;8.406;2023-05-07T03:27:16;16.70;97.20
3408;DHT22;1717;50.240;8.406;2023-05-07T03:29:43;16.70;97.10
3408;DHT22;1717;50.240;8.406;2023-05-07T03:32:10;16.60;97.10
3408;DHT22;1717;50.240;8.406;2023-05-07T03:34:37;16.60;97.30
3408;DHT22;1717;50.240;8.406;2023-05-07T03:37:03;16.50;97.30
3408;DHT22;1717;50.240;8.406;2023-05-07T03:39:30;16.50;97.20
3408;DHT22;1717;50.240;8.406;2023-05-07T03:41:59;16.50;97.20
3408;DHT22;1717;50.240;8.406;2023-05-07T03:44:26;16.50;97.30
3408;DHT22;1717;50.240;8.406;2023-05-07T03:46:53;16.50;97.30
3408;DHT22;1717;50.240;8.406;2023-05-07T03:49:20;16.50;97.30
3408;DHT22;1717;50.240;8.406;2023-05-07T03:51:47;16.50;97.40
3408;DHT22;1717;50.240;8.406;2023-05-07T03:54:14;16.50;97.50
3408;DHT22;1717;50.240;8.406;2023-05-07T03:56:41;16.50;97.60
3408;DHT22;1717;50.240;8.406;2023-05-07T03:59:09;16.40;97.80
3408;DHT22;1717;50.240;8.406;2023-05-07T04:01:36;16.40;97.90
3408;DHT22;1717;50.240;8.406;2023-05-07T04:04:03;16.40;98.00
3408;DHT22;1717;50.240;8.406;2023-05-07T04:06:30;16.30;98.10
3408;DHT22;1717;50.240;8.406;2023-05-07T04:08:57;16.30;97.90
3408;DHT22;1717;50.240;8.406;2023-05-07T04:11:25;16.30;98.00
3408;DHT22;1717;50.240;8.406;2023-05-07T04:13:51;16.30;97.90
3408;DHT22;1717;50.240;8.406;2023-05-07T04:16:20;16.30;98.00
3408;DHT22;1717;50.240;8.406;2023-05-07T04:18:46;16.30;98.00
3408;DHT22;1717;50.240;8.406;2023-05-07T04:21:14;16.20;98.30
3408;DHT22;1717;50.240;8.406;2023-05-07T04:23:42;16.20;97.90
3408;DHT22;1717;50.240;8.406;2023-05-07T04:26:09;16.20;98.10
3408;DHT22;1717;50.240;8.406;2023-05-07T04:28:36;16.10;98.50
3408;DHT22;1717;50.240;8.406;2023-05-07T04:31:03;16.00;99.00
3408;DHT22;1717;50.240;8.406;2023-05-07T04:33:31;15.90;99.30
3408;DHT22;1717;50.240;8.406;2023-05-07T04:35:58;15.80;99.10
3408;DHT22;1717;50.240;8.406;2023-05-07T04:38:28;15.70;99.50
3408;DHT22;1717;50.240;8.406;2023-05-07T04:40:55;15.60;99.40
3408;DHT22;1717;50.240;8.406;2023-05-07T04:43:22;15.50;99.60
3408;DHT22;1717;50.240;8.406;2023-05-07T04:45:50;15.50;99.60
3408;DHT22;1717;50.240;8.406;2023-05-07T04:48:17;15.60;99.70
3408;DHT22;1717;50.240;8.406;2023-05-07T04:50:47;15.60;99.60
3408;DHT22;1717;50.240;8.406;2023-05-07T04:53:14;15.70;99.50
3408;DHT22;1717;50.240;8.406;2023-05-07T04:55:41;15.80;99.50
3408;DHT22;1717;50.240;8.406;2023-05-07T04:58:08;15.90;99.40
3408;DHT22;1717;50.240;8.406;2023-05-07T05:00:35;15.90;99.30
3408;DHT22;1717;50.240;8.406;2023-05-07T05:03:02;16.00;99.20
3408;DHT22;1717;50.240;8.406;2023-05-07T05:05:29;16.10;99.10
3408;DHT22;1717;50.240;8.406;2023-05-07T05:07:57;16.10;99.00
3408;DHT22;1717;50.240;8.406;2023-05-07T05:10:24;16.40;98.90
3408;DHT22;1717;50.240;8.406;2023-05-07T05:12:51;16.30;98.80
3408;DHT22;1717;50.240;8.406;2023-05-07T05:15:18;16.40;98.70
3408;DHT22;1717;50.240;8.406;2023-05-07T05:17:45;16.40;98.50
3408;DHT22;1717;50.240;8.406;2023-05-07T05:20:12;16.50;98.80
3408;DHT22;1717;50.240;8.406;2023-05-07T05:22:40;16.40;98.90
3408;DHT22;1717;50.240;8.406;2023-05-07T05:25:08;16.50;98.80
3408;DHT22;1717;50.240;8.406;2023-05-07T05:27:35;16.60;98.70
3408;DHT22;1717;50.240;8.406;2023-05-07T05:30:02;16.60;98.50
3408;DHT22;1717;50.240;8.406;2023-05-07T05:32:29;16.70;98.50
3408;DHT22;1717;50.240;8.406;2023-05-07T05:34:56;16.70;98.50
3408;DHT22;1717;50.240;8.406;2023-05-07T05:37:23;16.80;98.40
3408;DHT22;1717;50.240;8.406;2023-05-07T05:39:50;16.80;98.40
3408;DHT22;1717;50.240;8.406;2023-05-07T05:42:18;16.80;98.50
3408;DHT22;1717;50.240;8.406;2023-05-07T05:44:45;16.90;98.60
3408;DHT22;1717;50.240;8.406;2023-05-07T05:47:12;16.90;98.60
3408;DHT22;1717;50.240;8.406;2023-05-07T05:49:39;16.90;98.50
3408;DHT22;1717;50.240;8.406;2023-05-07T05:52:06;17.00;98.50
3408;DHT22;1717;50.240;8.406;2023-05-07T05:54:32;17.10;98.50
3408;DHT22;1717;50.240;8.406;2023-05-07T05:56:59;17.10;98.30
3408;DHT22;1717;50.240;8.406;2023-05-07T05:59:30;17.10;98.40
3408;DHT22;1717;50.240;8.406;2023-05-07T06:01:57;17.30;98.80
3408;DHT22;1717;50.240;8.406;2023-05-07T06:04:24;17.20;99.10
3408;DHT22;1717;50.240;8.406;2023-05-07T06:06:51;17.30;98.90
3408;DHT22;1717;50.240;8.406;2023-05-07T06:09:18;17.30;98.60
3408;DHT22;1717;50.240;8.406;2023-05-07T06:11:45;17.40;98.70
3408;DHT22;1717;50.240;8.406;2023-05-07T06:14:12;17.50;98.70
3408;DHT22;1717;50.240;8.406;2023-05-07T06:16:40;17.50;98.70
3408;DHT22;1717;50.240;8.406;2023-05-07T06:19:07;17.50;98.40
3408;DHT22;1717;50.240;8.406;2023-05-07T06:21:34;17.60;98.70
3408;DHT22;1717;50.240;8.406;2023-05-07T06:24:01;17.60;98.70
3408;DHT22;1717;50.240;8.406;2023-05-07T06:26:28;17.70;98.90
3408;DHT22;1717;50.240;8.406;2023-05-07T06:28:54;17.70;99.00
3408;DHT22;1717;50.240;8.406;2023-05-07T06:31:21;17.80;99.00
3408;DHT22;1717;50.240;8.406;2023-05-07T06:33:49;17.80;99.10
3408;DHT22;1717;50.240;8.406;2023-05-07T06:36:16;17.80;99.00
3408;DHT22;1717;50.240;8.406;2023-05-07T06:38:43;17.80;99.00
3408;DHT22;1717;50.240;8.406;2023-05-07T06:41:10;17.70;99.10
3408;DHT22;1717;50.240;8.406;2023-05-07T06:43:37;17.80;98.90
3408;DHT22;1717;50.240;8.406;2023-05-07T06:46:04;17.80;99.10
3408;DHT22;1717;50.240;8.406;2023-05-07T06:48:30;17.80;99.10
3408;DHT22;1717;50.240;8.406;2023-05-07T06:50:59;17.80;99.30
3408;DHT22;1717;50.240;8.406;2023-05-07T06:53:25;17.90;99.30
3408;DHT22;1717;50.240;8.406;2023-05-07T06:55:53;17.90;99.20
3408;DHT22;1717;50.240;8.406;2023-05-07T06:58:20;18.00;99.10
3408;DHT22;1717;50.240;8.406;2023-05-07T07:00:47;18.00;99.30
3408;DHT22;1717;50.240;8.406;2023-05-07T07:03:14;18.10;99.30
3408;DHT22;1717;50.240;8.406;2023-05-07T07:05:41;18.30;99.10
3408;DHT22;1717;50.240;8.406;2023-05-07T07:08:10;18.20;99.10
3408;DHT22;1717;50.240;8.406;2023-05-07T07:10:37;18.30;98.80
3408;DHT22;1717;50.240;8.406;2023-05-07T07:13:03;18.40;99.30
3408;DHT22;1717;50.240;8.406;2023-05-07T07:15:30;18.40;98.60
3408;DHT22;1717;50.240;8.406;2023-05-07T07:17:57;18.50;98.30
3408;DHT22;1717;50.240;8.406;2023-05-07T07:20:24;18.50;98.10
3408;DHT22;1717;50.240;8.406;2023-05-07T07:22:51;18.60;98.30
3408;DHT22;1717;50.240;8.406;2023-05-07T07:25:19;18.60;98.20
3408;DHT22;1717;50.240;8.406;2023-05-07T07:27:46;18.70;97.90
3408;DHT22;1717;50.240;8.406;2023-05-07T07:30:13;18.80;97.50
3408;DHT22;1717;50.240;8.406;2023-05-07T07:32:40;18.80;97.30
3408;DHT22;1717;50.240;8.406;2023-05-07T07:35:07;19.10;97.20
3408;DHT22;1717;50.240;8.406;2023-05-07T07:37:34;19.00;97.00
3408;DHT22;1717;50.240;8.406;2023-05-07T07:40:01;19.00;96.80
3408;DHT22;1717;50.240;8.406;2023-05-07T07:42:30;19.10;96.60
3408;DHT22;1717;50.240;8.406;2023-05-07T07:44:57;19.30;96.50
3408;DHT22;1717;50.240;8.406;2023-05-07T07:47:24;19.20;96.20
3408;DHT22;1717;50.240;8.406;2023-05-07T07:49:50;19.30;96.40
3408;DHT22;1717;50.240;8.406;2023-05-07T07:52:18;19.30;95.80
3408;DHT22;1717;50.240;8.406;2023-05-07T07:54:45;19.40;95.50
3408;DHT22;1717;50.240;8.406;2023-05-07T07:57:12;19.50;95.40
3408;DHT22;1717;50.240;8.406;2023-05-07T07:59:40;19.70;95.20
3408;DHT22;1717;50.240;8.406;2023-05-07T08:02:08;19.60;95.10
3408;DHT22;1717;50.240;8.406;2023-05-07T08:04:35;19.70;94.50
3408;DHT22;1717;50.240;8.406;2023-05-07T08:07:02;19.70;93.60
3408;DHT22;1717;50.240;8.406;2023-05-07T08:09:29;19.70;93.20
3408;DHT22;1717;50.240;8.406;2023-05-07T08:11:56;19.70;92.90
3408;DHT22;1717;50.240;8.406;2023-05-07T08:14:23;19.80;93.40
3408;DHT22;1717;50.240;8.406;2023-05-07T08:16:52;19.80;93.50
3408;DHT22;1717;50.240;8.406;2023-05-07T08:19:19;19.80;93.40
3408;DHT22;1717;50.240;8.406;2023-05-07T08:21:47;19.80;92.80
3408;DHT22;1717;50.240;8.406;2023-05-07T08:24:14;19.90;92.90
3408;DHT22;1717;50.240;8.406;2023-05-07T08:26:41;19.90;93.00
3408;DHT22;1717;50.240;8.406;2023-05-07T08:29:08;19.90;93.00
3408;DHT22;1717;50.240;8.406;2023-05-07T08:31:35;20.00;92.80
3408;DHT22;1717;50.240;8.406;2023-05-07T08:34:03;20.00;92.40
3408;DHT22;1717;50.240;8.406;2023-05-07T08:36:30;20.10;92.40
3408;DHT22;1717;50.240;8.406;2023-05-07T08:38:57;20.10;92.30
3408;DHT22;1717;50.240;8.406;2023-05-07T08:41:24;20.20;92.40
3408;DHT22;1717;50.240;8.406;2023-05-07T08:43:51;20.30;92.40
3408;DHT22;1717;50.240;8.406;2023-05-07T08:46:19;20.30;92.10
3408;DHT22;1717;50.240;8.406;2023-05-07T08:48:48;20.30;91.80
3408;DHT22;1717;50.240;8.406;2023-05-07T08:51:19;20.40;91.70
3408;DHT22;1717;50.240;8.406;2023-05-07T08:53:47;20.50;91.60
3408;DHT22;1717;50.240;8.406;2023-05-07T08:56:15;20.50;91.20
3408;DHT22;1717;50.240;8.406;2023-05-07T08:58:43;20.50;90.90
3408;DHT22;1717;50.240;8.406;2023-05-07T09:01:14;20.60;90.80
3408;DHT22;1717;50.240;8.406;2023-05-07T09:03:42;20.60;90.50
3408;DHT22;1717;50.240;8.406;2023-05-07T09:06:10;20.70;90.40
3408;DHT22;1717;50.240;8.406;2023-05-07T09:08:39;20.70;90.30
3408;DHT22;1717;50.240;8.406;2023-05-07T09:11:06;20.80;90.20
3408;DHT22;1717;50.240;8.406;2023-05-07T09:13:33;20.80;90.40
3408;DHT22;1717;50.240;8.406;2023-05-07T09:16:10;20.90;90.50
3408;DHT22;1717;50.240;8.406;2023-05-07T09:18:41;20.90;90.40
3408;DHT22;1717;50.240;8.406;2023-05-07T09:21:10;21.00;90.30
3408;DHT22;1717;50.240;8.406;2023-05-07T09:23:39;21.00;90.40
3408;DHT22;1717;50.240;8.406;2023-05-07T09:26:07;20.90;89.90
3408;DHT22;1717;50.240;8.406;2023-05-07T09:28:39;21.00;90.10
3408;DHT22;1717;50.240;8.406;2023-05-07T09:31:07;21.10;90.00
3408;DHT22;1717;50.240;8.406;2023-05-07T09:33:34;21.30;89.00
3408;DHT22;1717;50.240;8.406;2023-05-07T09:36:03;21.20;88.90
3408;DHT22;1717;50.240;8.406;2023-05-07T09:38:30;21.30;88.60
3408;DHT22;1717;50.240;8.406;2023-05-07T09:41:07;21.40;88.60
3408;DHT22;1717;50.240;8.406;2023-05-07T09:43:35;21.40;88.50
3408;DHT22;1717;50.240;8.406;2023-05-07T09:46:03;21.50;88.50
3408;DHT22;1717;50.240;8.406;2023-05-07T09:48:34;21.60;87.50
3408;DHT22;1717;50.240;8.406;2023-05-07T09:51:02;21.60;86.10
3408;DHT22;1717;50.240;8.406;2023-05-07T09:53:31;21.60;86.50
3408;DHT22;1717;50.240;8.406;2023-05-07T09:56:00;21.70;86.50
3408;DHT22;1717;50.240;8.406;2023-05-07T09:58:29;21.70;85.80
3408;DHT22;1717;50.240;8.406;2023-05-07T10:00:57;21.70;85.30
3408;DHT22;1717;50.240;8.406;2023-05-07T10:03:27;21.80;85.90
3408;DHT22;1717;50.240;8.406;2023-05-07T10:05:56;21.80;86.70
3408;DHT22;1717;50.240;8.406;2023-05-07T10:08:25;21.90;85.60
3408;DHT22;1717;50.240;8.406;2023-05-07T10:10:52;21.90;83.10
3408;DHT22;1717;50.240;8.406;2023-05-07T10:13:20;21.90;81.90
3408;DHT22;1717;50.240;8.406;2023-05-07T10:15:49;21.90;82.20
3408;DHT22;1717;50.240;8.406;2023-05-07T10:18:16;21.90;81.80
3408;DHT22;1717;50.240;8.406;2023-05-07T10:20:46;21.90;81.00
3408;DHT22;1717;50.240;8.406;2023-05-07T10:23:15;21.90;81.00
3408;DHT22;1717;50.240;8.406;2023-05-07T10:25:44;21.90;80.70
3408;DHT22;1717;50.240;8.406;2023-05-07T10:28:12;22.00;81.60
3408;DHT22;1717;50.240;8.406;2023-05-07T10:30:47;22.00;80.30
3408;DHT22;1717;50.240;8.406;2023-05-07T10:33:23;22.10;80.80
3408;DHT22;1717;50.240;8.406;2023-05-07T10:35:57;22.10;79.50
3408;DHT22;1717;50.240;8.406;2023-05-07T10:38:25;22.20;79.90
3408;DHT22;1717;50.240;8.406;2023-05-07T10:40:52;22.20;78.80
3408;DHT22;1717;50.240;8.406;2023-05-07T10:43:19;22.20;78.00
3408;DHT22;1717;50.240;8.406;2023-05-07T10:46:10;22.20;77.80
3408;DHT22;1717;50.240;8.406;2023-05-07T10:49:12;22.30;79.80
3408;DHT22;1717;50.240;8.406;2023-05-07T10:51:39;22.40;78.80
3408;DHT22;1717;50.240;8.406;2023-05-07T10:54:20;22.50;78.50
3408;DHT22;1717;50.240;8.406;2023-05-07T10:56:47;22.60;77.60
3408;DHT22;1717;50.240;8.406;2023-05-07T10:59:35;22.60;77.70
3408;DHT22;1717;50.240;8.406;2023-05-07T11:02:07;22.70;78.00
3408;DHT22;1717;50.240;8.406;2023-05-07T11:04:37;22.70;78.00
3408;DHT22;1717;50.240;8.406;2023-05-07T11:07:27;22.80;77.90
3408;DHT22;1717;50.240;8.406;2023-05-07T11:09:55;22.80;78.30
3408;DHT22;1717;50.240;8.406;2023-05-07T11:12:54;22.80;76.60
3408;DHT22;1717;50.240;8.406;2023-05-07T11:18:11;22.90;76.80
3408;DHT22;1717;50.240;8.406;2023-05-07T11:20:48;22.80;74.30
3408;DHT22;1717;50.240;8.406;2023-05-07T11:23:56;22.80;72.20
3408;DHT22;1717;50.240;8.406;2023-05-07T11:26:24;22.80;72.50
3408;DHT22;1717;50.240;8.406;2023-05-07T11:28:52;22.80;72.80
3408;DHT22;1717;50.240;8.406;2023-05-07T11:31:24;22.90;73.60
3408;DHT22;1717;50.240;8.406;2023-05-07T11:33:53;22.90;73.20
3408;DHT22;1717;50.240;8.406;2023-05-07T11:36:23;23.00;73.50
3408;DHT22;1717;50.240;8.406;2023-05-07T11:38:50;23.10;73.70
3408;DHT22;1717;50.240;8.406;2023-05-07T11:41:17;23.10;73.50
3408;DHT22;1717;50.240;8.406;2023-05-07T11:43:56;23.20;74.20
3408;DHT22;1717;50.240;8.406;2023-05-07T11:46:23;23.30;73.30
3408;DHT22;1717;50.240;8.406;2023-05-07T11:48:50;23.40;73.60
3408;DHT22;1717;50.240;8.406;2023-05-07T11:51:23;23.40;72.80
3408;DHT22;1717;50.240;8.406;2023-05-07T11:53:52;23.50;71.10
3408;DHT22;1717;50.240;8.406;2023-05-07T11:56:19;23.50;70.90
3408;DHT22;1717;50.240;8.406;2023-05-07T11:58:47;23.60;71.10
3408;DHT22;1717;50.240;8.406;2023-05-07T12:01:15;23.60;72.10
3408;DHT22;1717;50.240;8.406;2023-05-07T12:03:44;23.60;71.30
3408;DHT22;1717;50.240;8.406;2023-05-07T12:06:12;23.60;71.80
3408;DHT22;1717;50.240;8.406;2023-05-07T12:08:42;23.70;70.60
3408;DHT22;1717;50.240;8.406;2023-05-07T12:11:11;23.80;71.40
3408;DHT22;1717;50.240;8.406;2023-05-07T12:13:39;23.80;71.00
3408;DHT22;1717;50.240;8.406;2023-05-07T12:16:06;23.90;71.00
3408;DHT22;1717;50.240;8.406;2023-05-07T12:18:35;24.00;71.10
3408;DHT22;1717;50.240;8.406;2023-05-07T12:21:04;24.00;71.30
3408;DHT22;1717;50.240;8.406;2023-05-07T12:23:31;24.10;71.60
3408;DHT22;1717;50.240;8.406;2023-05-07T12:26:01;24.20;71.80
3408;DHT22;1717;50.240;8.406;2023-05-07T12:28:28;24.30;72.30
3408;DHT22;1717;50.240;8.406;2023-05-07T12:30:56;24.30;70.40
3408;DHT22;1717;50.240;8.406;2023-05-07T12:33:25;24.30;70.70
3408;DHT22;1717;50.240;8.406;2023-05-07T12:35:54;24.40;70.60
3408;DHT22;1717;50.240;8.406;2023-05-07T12:38:21;24.40;70.80
3408;DHT22;1717;50.240;8.406;2023-05-07T12:40:49;24.40;69.80
3408;DHT22;1717;50.240;8.406;2023-05-07T12:43:19;24.40;70.30
3408;DHT22;1717;50.240;8.406;2023-05-07T12:45:48;24.40;69.80
3408;DHT22;1717;50.240;8.406;2023-05-07T12:48:15;24.40;67.50
3408;DHT22;1717;50.240;8.406;2023-05-07T12:50:43;24.40;69.10
3408;DHT22;1717;50.240;8.406;2023-05-07T12:53:11;24.40;68.80
3408;DHT22;1717;50.240;8.406;2023-05-07T12:55:42;24.50;68.60
3408;DHT22;1717;50.240;8.406;2023-05-07T12:58:19;24.50;68.80
3408;DHT22;1717;50.240;8.406;2023-05-07T13:00:48;24.50;68.80
3408;DHT22;1717;50.240;8.406;2023-05-07T13:03:21;24.50;69.00
3408;DHT22;1717;50.240;8.406;2023-05-07T13:05:49;24.40;67.30
3408;DHT22;1717;50.240;8.406;2023-05-07T13:08:31;24.40;66.50
3408;DHT22;1717;50.240;8.406;2023-05-07T13:10:59;24.30;68.50
3408;DHT22;1717;50.240;8.406;2023-05-07T13:13:30;24.30;68.20
3408;DHT22;1717;50.240;8.406;2023-05-07T13:15:57;24.30;68.30
3408;DHT22;1717;50.240;8.406;2023-05-07T13:18:24;24.30;68.00
3408;DHT22;1717;50.240;8.406;2023-05-07T13:20:51;24.20;67.60
3408;DHT22;1717;50.240;8.406;2023-05-07T13:23:18;24.20;67.60
3408;DHT22;1717;50.240;8.406;2023-05-07T13:25:45;24.10;68.10
3408;DHT22;1717;50.240;8.406;2023-05-07T13:28:12;24.10;68.60
3408;DHT22;1717;50.240;8.406;2023-05-07T13:30:40;24.00;68.60
3408;DHT22;1717;50.240;8.406;2023-05-07T13:33:08;24.00;69.00
3408;DHT22;1717;50.240;8.406;2023-05-07T13:35:35;23.90;68.50
3408;DHT22;1717;50.240;8.406;2023-05-07T13:38:02;23.80;69.00
3408;DHT22;1717;50.240;8.406;2023-05-07T13:40:28;23.80;69.40
3408;DHT22;1717;50.240;8.406;2023-05-07T13:42:57;23.70;69.40
3408;DHT22;1717;50.240;8.406;2023-05-07T13:45:24;23.70;69.60
3408;DHT22;1717;50.240;8.406;2023-05-07T13:47:53;23.60;69.40
3408;DHT22;1717;50.240;8.406;2023-05-07T13:50:20;23.60;70.10
3408;DHT22;1717;50.240;8.406;2023-05-07T13:52:47;23.60;70.10
3408;DHT22;1717;50.240;8.406;2023-05-07T13:55:16;23.60;70.00
3408;DHT22;1717;50.240;8.406;2023-05-07T13:57:43;23.50;69.20
3408;DHT22;1717;50.240;8.406;2023-05-07T14:00:12;23.50;69.00
3408;DHT22;1717;50.240;8.406;2023-05-07T14:02:39;23.50;69.60
3408;DHT22;1717;50.240;8.406;2023-05-07T14:05:08;23.50;70.40
3408;DHT22;1717;50.240;8.406;2023-05-07T14:07:35;23.40;69.90
3408;DHT22;1717;50.240;8.406;2023-05-07T14:10:03;23.50;70.00
3408;DHT22;1717;50.240;8.406;2023-05-07T14:12:31;23.40;70.10
3408;DHT22;1717;50.240;8.406;2023-05-07T14:14:58;23.40;70.50
3408;DHT22;1717;50.240;8.406;2023-05-07T14:17:25;23.40;70.80
3408;DHT22;1717;50.240;8.406;2023-05-07T14:19:52;23.50;71.00
3408;DHT22;1717;50.240;8.406;2023-05-07T14:22:21;23.50;70.80
3408;DHT22;1717;50.240;8.406;2023-05-07T14:24:49;23.60;70.90
3408;DHT22;1717;50.240;8.406;2023-05-07T14:27:16;23.60;70.80
3408;DHT22;1717;50.240;8.406;2023-05-07T14:29:43;23.70;71.00
3408;DHT22;1717;50.240;8.406;2023-05-07T14:32:11;23.70;70.60
3408;DHT22;1717;50.240;8.406;2023-05-07T14:34:38;23.80;70.00
3408;DHT22;1717;50.240;8.406;2023-05-07T14:37:05;23.90;70.40
3408;DHT22;1717;50.240;8.406;2023-05-07T14:39:33;24.10;70.40
3408;DHT22;1717;50.240;8.406;2023-05-07T14:42:00;24.20;69.60
3408;DHT22;1717;50.240;8.406;2023-05-07T14:44:27;24.30;70.20
3408;DHT22;1717;50.240;8.406;2023-05-07T14:46:54;24.40;68.80
3408;DHT22;1717;50.240;8.406;2023-05-07T14:49:21;24.50;67.80
3408;DHT22;1717;50.240;8.406;2023-05-07T14:51:47;24.60;68.00
3408;DHT22;1717;50.240;8.406;2023-05-07T14:54:14;24.60;67.90
3408;DHT22;1717;50.240;8.406;2023-05-07T14:56:42;24.70;66.50
3408;DHT22;1717;50.240;8.406;2023-05-07T14:59:09;24.70;66.80
3408;DHT22;1717;50.240;8.406;2023-05-07T15:01:37;24.70;65.70
3408;DHT22;1717;50.240;8.406;2023-05-07T15:04:05;24.70;66.40
3408;DHT22;1717;50.240;8.406;2023-05-07T15:06:32;24.70;66.90
3408;DHT22;1717;50.240;8.406;2023-05-07T15:08:59;24.80;66.60
3408;DHT22;1717;50.240;8.406;2023-05-07T15:11:26;24.90;66.90
3408;DHT22;1717;50.240;8.406;2023-05-07T15:13:54;24.90;66.90
3408;DHT22;1717;50.240;8.406;2023-05-07T15:16:21;24.90;66.20
3408;DHT22;1717;50.240;8.406;2023-05-07T15:18:48;24.90;66.40
3408;DHT22;1717;50.240;8.406;2023-05-07T15:21:15;24.90;66.30
3408;DHT22;1717;50.240;8.406;2023-05-07T15:23:42;24.80;65.80
3408;DHT22;1717;50.240;8.406;2023-05-07T15:26:10;24.80;66.40
3408;DHT22;1717;50.240;8.406;2023-05-07T15:28:37;24.80;66.30
3408;DHT22;1717;50.240;8.406;2023-05-07T15:31:06;24.70;66.70
3408;DHT22;1717;50.240;8.406;2023-05-07T15:33:33;24.70;66.80
3408;DHT22;1717;50.240;8.406;2023-05-07T15:35:59;24.60;67.00
3408;DHT22;1717;50.240;8.406;2023-05-07T15:38:29;24.60;66.80
3408;DHT22;1717;50.240;8.406;2023-05-07T15:40:56;24.50;66.40
3408;DHT22;1717;50.240;8.406;2023-05-07T15:43:23;24.50;66.90
3408;DHT22;1717;50.240;8.406;2023-05-07T15:45:51;24.40;66.70
3408;DHT22;1717;50.240;8.406;2023-05-07T15:48:20;24.40;67.00
3408;DHT22;1717;50.240;8.406;2023-05-07T15:50:47;24.20;67.00
3408;DHT22;1717;50.240;8.406;2023-05-07T15:53:13;24.10;67.00
3408;DHT22;1717;50.240;8.406;2023-05-07T15:55:42;24.00;67.30
3408;DHT22;1717;50.240;8.406;2023-05-07T15:58:09;24.00;67.20
3408;DHT22;1717;50.240;8.406;2023-05-07T16:00:37;24.00;67.40
3408;DHT22;1717;50.240;8.406;2023-05-07T16:03:05;23.80;67.70
3408;DHT22;1717;50.240;8.406;2023-05-07T16:05:34;23.70;67.60
3408;DHT22;1717;50.240;8.406;2023-05-07T16:08:01;23.70;68.10
3408;DHT22;1717;50.240;8.406;2023-05-07T16:10:28;23.60;68.50